Time;durP1;ratioP1;P1;durP2;ratioP2;P2;SDS_P1;SDS_P2;PMS_P1;PMS_P2;Temp;Humidity;BMP_temperature;BMP_pressure;BME280_temperature;BME280_humidity;BME280_pressure;Samples;Min_cycle;Max_cycle;Signal;HPM_P1;HPM_P2
2023/09/21 00:00:44;;;;;;;;;3.00;3.00;;;;;21.62;79.28;99877.44;5115809;27;45281;-72
2023/09/21 00:03:12;;;;;;;;;3.33;2.33;;;;;21.60;80.29;99874.06;5110525;27;45345;-72
2023/09/21 00:05:39;;;;;;;;;3.00;3.00;;;;;21.59;82.06;99875.06;5100685;27;45315;-72
2023/09/21 00:08:06;;;;;;;;;2.00;2.00;;;;;21.51;81.61;99864.28;5119599;27;45372;-72
2023/09/21 00:10:32;;;;;;;;;2.00;2.00;;;;;21.50;82.08;99870.69;5102720;27;45529;-72
2023/09/21 00:13:01;;;;;;;;;3.00;2.00;;;;;21.45;85.85;99862.25;5099323;27;46949;-72
2023/09/21 00:15:30;;;;;;;;;3.00;3.00;;;;;21.42;86.07;99868.81;5113404;27;45480;-71
2023/09/21 00:17:56;;;;;;;;;3.00;3.00;;;;;21.31;87.22;99858.34;5107395;27;45524;-72
2023/09/21 00:20:28;;;;;;;;;2.67;2.67;;;;;21.24;89.66;99860.84;5110365;27;45559;-72
2023/09/21 00:22:53;;;;;;;;;3.00;3.00;;;;;21.22;88.80;99852.13;5107267;27;45698;-73
2023/09/21 00:25:20;;;;;;;;;2.67;2.67;;;;;21.22;89.85;99860.19;5104320;27;45432;-72
2023/09/21 00:27:46;;;;;;;;;3.33;2.00;;;;;21.12;91.76;99845.19;5111633;27;45442;-72
2023/09/21 00:30:12;;;;;;;;;4.00;1.33;;;;;21.16;90.79;99854.63;5103283;27;45513;-72
2023/09/21 00:32:38;;;;;;;;;2.33;2.00;;;;;21.07;94.33;99837.56;5106580;27;45302;-72
2023/09/21 00:35:09;;;;;;;;;4.67;1.67;;;;;21.02;95.18;99839.06;5099980;27;45362;-72
2023/09/21 00:37:38;;;;;;;;;2.00;2.00;;;;;21.01;93.22;99838.22;5102392;27;45281;-72
2023/09/21 00:40:17;;;;;;;;;3.33;1.67;;;;;20.98;94.95;99846.59;5106045;27;45297;-72
2023/09/21 00:42:42;;;;;;;;;3.33;2.00;;;;;20.95;94.84;99833.47;5099995;27;45521;-72
2023/09/21 00:45:08;;;;;;;;;1.00;1.00;;;;;20.94;93.83;99831.78;5108002;27;45540;-72
2023/09/21 00:47:38;;;;;;;;;3.00;1.33;;;;;20.92;93.92;99835.66;5119095;27;45303;-73
2023/09/21 00:50:11;;;;;;;;;2.33;2.33;;;;;20.87;96.49;99830.78;5108368;27;45581;-72
2023/09/21 00:52:41;;;;;;;;;2.00;2.00;;;;;20.89;94.72;99836.81;5099115;27;46401;-72
2023/09/21 00:55:11;;;;;;;;;2.00;2.00;;;;;20.77;96.60;99825.53;5098521;27;45336;-72
2023/09/21 00:57:36;;;;;;;;;2.33;2.33;;;;;20.81;98.96;99838.66;5111803;27;45372;-72
2023/09/21 01:00:10;;;;;;;;;2.00;2.00;;;;;20.77;97.01;99838.13;5106602;27;45504;-73
2023/09/21 01:02:35;;;;;;;;;3.00;2.00;;;;;20.77;100.00;99841.66;5105458;27;47849;-72
2023/09/21 01:05:01;;;;;;;;;2.00;2.00;;;;;20.70;100.00;99832.53;5106151;27;45347;-72
2023/09/21 01:07:29;;;;;;;;;1.00;1.00;;;;;20.68;100.00;99822.97;5103035;27;45311;-72
2023/09/21 01:09:54;;;;;;;;;3.00;2.67;;;;;20.56;100.00;99797.38;5116001;27;45481;-72
2023/09/21 01:12:22;;;;;;;;;3.00;3.00;;;;;20.66;100.00;99809.69;5099728;27;45444;-72
2023/09/21 01:14:47;;;;;;;;;2.00;1.00;;;;;20.64;100.00;99818.91;5098209;27;45685;-73
2023/09/21 01:17:13;;;;;;;;;3.00;2.00;;;;;20.60;100.00;99833.66;5111792;27;45496;-73
2023/09/21 01:19:39;;;;;;;;;2.00;2.00;;;;;20.49;100.00;99818.66;5098248;27;45478;-72
2023/09/21 01:22:11;;;;;;;;;2.00;2.00;;;;;20.46;100.00;99820.81;5102285;27;46352;-72
2023/09/21 01:24:38;;;;;;;;;1.67;1.67;;;;;20.49;100.00;99829.41;5096246;27;45341;-73
2023/09/21 01:27:03;;;;;;;;;1.33;1.33;;;;;20.47;100.00;99833.25;5110226;27;45416;-73
2023/09/21 01:29:30;;;;;;;;;0.00;0.00;;;;;20.34;100.00;99816.72;5102140;27;45325;-73
2023/09/21 01:31:56;;;;;;;;;4.00;2.67;;;;;20.38;100.00;99820.78;5104452;27;46834;-73
2023/09/21 01:34:21;;;;;;;;;1.00;1.00;;;;;20.36;100.00;99825.44;5067767;27;1127054;-74
2023/09/21 01:36:47;;;;;;;;;1.00;1.00;;;;;20.32;100.00;99816.03;5102751;27;45560;-74
2023/09/21 01:39:12;;;;;;;;;1.67;1.00;;;;;20.29;100.00;99819.88;5112978;27;45422;-73
2023/09/21 01:41:37;;;;;;;;;2.00;2.00;;;;;20.17;100.00;99805.84;5099752;27;45399;-74
2023/09/21 01:44:03;;;;;;;;;5.00;2.33;;;;;20.03;100.00;99809.09;5102555;27;45278;-74
2023/09/21 01:46:28;;;;;;;;;2.33;1.33;;;;;20.03;100.00;99822.50;5100626;27;45370;-74
2023/09/21 01:48:54;;;;;;;;;3.33;1.67;;;;;19.97;100.00;99819.59;5102759;27;45204;-74
2023/09/21 01:51:20;;;;;;;;;1.00;1.00;;;;;19.94;100.00;99815.41;5105395;27;46919;-74
2023/09/21 01:53:47;;;;;;;;;3.00;1.33;;;;;19.81;100.00;99793.50;5103052;27;45317;-74
2023/09/21 01:56:14;;;;;;;;;3.33;2.00;;;;;19.91;100.00;99820.22;5116242;27;45653;-73
2023/09/21 01:58:39;;;;;;;;;1.33;1.33;;;;;19.80;100.00;99790.97;5113235;27;45436;-74
2023/09/21 02:01:04;;;;;;;;;4.00;2.33;;;;;19.71;100.00;99780.16;5107804;27;49923;-74
2023/09/21 02:03:31;;;;;;;;;2.67;2.00;;;;;19.73;100.00;99785.38;5104017;27;45287;-74
2023/09/21 02:05:59;;;;;;;;;1.33;1.33;;;;;19.69;100.00;99786.69;5113482;27;45297;-75
2023/09/21 02:08:25;;;;;;;;;1.00;1.00;;;;;19.70;100.00;99785.66;5106653;27;45519;-74
2023/09/21 02:10:51;;;;;;;;;1.67;1.67;;;;;19.65;100.00;99771.91;5099985;27;45278;-74
2023/09/21 02:13:16;;;;;;;;;2.67;1.67;;;;;19.65;100.00;99767.38;5118094;27;45291;-74
2023/09/21 02:15:43;;;;;;;;;2.00;2.00;;;;;19.58;100.00;99763.63;5103205;27;45413;-74
2023/09/21 02:18:10;;;;;;;;;1.67;1.67;;;;;19.62;100.00;99761.47;5103829;27;45286;-74
2023/09/21 02:20:38;;;;;;;;;2.33;1.00;;;;;19.55;100.00;99755.88;5122921;27;45620;-73
2023/09/21 02:23:04;;;;;;;;;2.33;1.67;;;;;19.53;100.00;99762.41;5122092;27;45261;-74
2023/09/21 02:25:34;;;;;;;;;1.33;1.33;;;;;19.47;100.00;99738.91;5114294;27;45313;-74
2023/09/21 02:28:00;;;;;;;;;2.00;2.00;;;;;19.52;100.00;99745.47;5098897;27;45346;-74
2023/09/21 02:30:25;;;;;;;;;1.67;1.67;;;;;19.43;100.00;99741.03;5108662;27;45451;-73
2023/09/21 02:32:53;;;;;;;;;2.00;2.00;;;;;19.47;100.00;99750.44;5105343;27;45478;-74
2023/09/21 02:35:27;;;;;;;;;2.00;2.00;;;;;19.36;100.00;99723.00;5116503;27;45504;-73
2023/09/21 02:37:54;;;;;;;;;2.67;2.67;;;;;19.35;100.00;99711.44;5120190;27;45360;-74
2023/09/21 02:40:22;;;;;;;;;3.00;2.00;;;;;19.39;100.00;99725.38;5103331;27;46330;-73
2023/09/21 02:42:53;;;;;;;;;0.00;0.00;;;;;19.30;100.00;99697.66;5109477;27;45472;-73
2023/09/21 02:45:23;;;;;;;;;3.00;3.00;;;;;19.32;100.00;99706.38;5102653;27;45459;-73
2023/09/21 02:47:51;;;;;;;;;1.33;1.33;;;;;19.40;100.00;99713.66;5103940;27;45616;-73
2023/09/21 02:50:25;;;;;;;;;1.00;1.00;;;;;19.32;100.00;99709.06;5104531;27;48124;-73
2023/09/21 02:53:06;;;;;;;;;3.33;3.00;;;;;19.29;100.00;99700.47;5116935;27;45521;-73
2023/09/21 02:55:33;;;;;;;;;3.00;3.00;;;;;19.24;100.00;99704.47;5116114;27;46135;-73
2023/09/21 02:58:19;;;;;;;;;1.00;1.00;;;;;19.32;100.00;99706.38;5106982;27;45350;-73
2023/09/21 03:00:45;;;;;;;;;2.33;2.33;;;;;19.27;100.00;99706.00;5108499;27;46019;-74
2023/09/21 03:03:13;;;;;;;;;2.00;2.00;;;;;19.27;100.00;99689.06;5116664;27;45422;-73
2023/09/21 03:05:39;;;;;;;;;2.00;2.00;;;;;19.36;100.00;99683.63;5111004;27;45236;-73
2023/09/21 03:08:13;;;;;;;;;2.00;2.00;;;;;19.34;100.00;99693.66;5115934;27;45502;-73
2023/09/21 03:10:43;;;;;;;;;2.00;2.00;;;;;19.29;100.00;99679.88;5120968;27;45965;-73
2023/09/21 03:13:15;;;;;;;;;2.33;2.33;;;;;19.25;100.00;99683.84;5101627;27;45307;-74
2023/09/21 03:15:41;;;;;;;;;1.00;1.00;;;;;19.21;100.00;99667.25;5116742;27;45540;-73
2023/09/21 03:18:06;;;;;;;;;1.67;1.67;;;;;19.33;100.00;99694.66;5119531;27;45385;-73
2023/09/21 03:20:36;;;;;;;;;3.67;1.33;;;;;19.36;100.00;99690.81;5110449;27;45942;-73
2023/09/21 03:23:09;;;;;;;;;1.00;1.00;;;;;19.33;100.00;99686.63;5110049;27;45496;-73
2023/09/21 03:25:40;;;;;;;;;1.33;1.33;;;;;19.39;100.00;99691.34;5107407;27;45368;-73
2023/09/21 03:28:10;;;;;;;;;2.00;2.00;;;;;19.33;100.00;99680.41;5118724;27;45289;-73
2023/09/21 03:30:38;;;;;;;;;3.00;1.67;;;;;19.31;100.00;99690.44;5104352;27;45351;-74
2023/09/21 03:33:05;;;;;;;;;1.33;1.33;;;;;19.41;100.00;99692.06;5101162;27;45321;-74
2023/09/21 03:35:31;;;;;;;;;1.67;1.67;;;;;19.23;100.00;99677.81;5110978;27;45481;-73
2023/09/21 03:37:57;;;;;;;;;2.00;1.00;;;;;19.37;100.00;99689.84;5108112;27;45548;-74
2023/09/21 03:40:25;;;;;;;;;1.00;0.00;;;;;19.41;100.00;99691.22;5102153;27;45374;-74
2023/09/21 03:42:51;;;;;;;;;4.00;2.00;;;;;19.35;100.00;99683.78;5106730;27;45449;-74
2023/09/21 03:45:16;;;;;;;;;1.00;1.00;;;;;19.38;100.00;99686.13;5104789;27;45344;-74
2023/09/21 03:47:42;;;;;;;;;1.00;1.00;;;;;19.44;100.00;99685.53;5108509;27;45573;-74
2023/09/21 03:50:12;;;;;;;;;1.33;1.00;;;;;19.45;100.00;99688.09;5102439;27;45397;-73
2023/09/21 03:52:42;;;;;;;;;1.00;1.00;;;;;19.41;100.00;99673.28;5113885;27;45454;-74
2023/09/21 03:55:10;;;;;;;;;2.00;1.00;;;;;19.34;100.00;99666.00;5102419;27;45523;-74
2023/09/21 03:57:37;;;;;;;;;2.00;1.00;;;;;19.41;100.00;99677.81;5105984;27;45248;-74
2023/09/21 04:00:08;;;;;;;;;2.00;0.33;;;;;19.38;100.00;99675.41;5118651;27;46900;-74
2023/09/21 04:02:33;;;;;;;;;1.00;1.00;;;;;19.40;100.00;99684.16;5105651;27;45384;-74
2023/09/21 04:05:09;;;;;;;;;0.00;0.00;;;;;19.40;100.00;99670.75;5108132;27;45232;-74
2023/09/21 04:07:34;;;;;;;;;1.00;1.00;;;;;19.33;100.00;99657.13;5106227;27;45264;-75
2023/09/21 04:10:01;;;;;;;;;1.67;0.67;;;;;19.40;100.00;99668.94;5106029;27;46125;-73
2023/09/21 04:12:26;;;;;;;;;1.00;1.00;;;;;19.34;100.00;99657.97;5106239;27;45440;-74
2023/09/21 04:14:51;;;;;;;;;1.00;1.00;;;;;19.29;100.00;99657.59;5118427;27;56726;-74
2023/09/21 04:17:17;;;;;;;;;1.00;1.00;;;;;19.37;100.00;99673.75;5117504;27;45394;-74
2023/09/21 04:19:44;;;;;;;;;1.67;1.00;;;;;19.34;100.00;99666.00;5110289;27;52960;-74
2023/09/21 04:22:09;;;;;;;;;3.00;0.67;;;;;19.36;100.00;99667.53;5111423;27;45476;-74
2023/09/21 04:24:34;;;;;;;;;1.00;1.00;;;;;19.36;100.00;99664.84;5100321;27;50230;-74
2023/09/21 04:26:59;;;;;;;;;0.00;0.00;;;;;19.31;100.00;99643.00;5114513;27;45477;-74
2023/09/21 04:29:26;;;;;;;;;0.00;0.00;;;;;19.29;100.00;99649.53;5109413;27;45435;-74
2023/09/21 04:31:51;;;;;;;;;1.00;1.00;;;;;19.33;100.00;99653.59;5116204;27;45404;-75
2023/09/21 04:34:16;;;;;;;;;0.67;0.67;;;;;19.30;100.00;99643.19;5106935;27;45300;-75
2023/09/21 04:36:42;;;;;;;;;1.00;1.00;;;;;19.31;100.00;99648.38;5103302;27;45380;-74
2023/09/21 04:39:08;;;;;;;;;1.00;1.00;;;;;19.31;100.00;99645.69;5109048;27;46984;-74
2023/09/21 04:41:33;;;;;;;;;1.00;1.00;;;;;19.29;100.00;99650.38;5120711;27;45220;-75
2023/09/21 04:44:00;;;;;;;;;1.00;1.00;;;;;19.29;100.00;99650.38;5112823;27;45291;-74
2023/09/21 04:46:25;;;;;;;;;4.00;2.00;;;;;19.31;100.00;99642.16;5106550;27;45457;-75
2023/09/21 04:48:50;;;;;;;;;1.00;1.00;;;;;19.31;100.00;99632.28;5108469;27;54328;-75
2023/09/21 04:51:17;;;;;;;;;2.67;1.00;;;;;19.27;100.00;99613.00;5101202;27;45539;-74
2023/09/21 04:53:42;;;;;;;;;1.00;1.00;;;;;19.24;100.00;99616.00;5100270;27;45283;-75
2023/09/21 04:56:08;;;;;;;;;2.67;1.33;;;;;19.18;100.00;99603.22;5118328;27;45593;-76
2023/09/21 04:58:34;;;;;;;;;2.00;0.67;;;;;19.19;100.00;99604.06;5106580;27;45923;-76
2023/09/21 05:00:59;;;;;;;;;2.00;0.00;;;;;19.24;100.00;99607.94;5105408;27;45407;-76
2023/09/21 05:03:25;;;;;;;;;3.00;1.67;;;;;19.21;100.00;99597.53;5116005;27;45441;-76
2023/09/21 05:05:52;;;;;;;;;2.00;1.00;;;;;19.23;100.00;99584.84;5108582;27;45523;-76
2023/09/21 05:08:18;;;;;;;;;2.00;1.00;;;;;19.21;100.00;99597.53;5111687;27;46573;-75
2023/09/21 05:10:43;;;;;;;;;2.00;1.00;;;;;19.09;100.00;99581.88;5118415;27;45366;-75
2023/09/21 05:13:08;;;;;;;;;1.33;1.33;;;;;19.17;100.00;99614.94;5115649;27;45449;-75
2023/09/21 05:15:34;;;;;;;;;1.00;1.00;;;;;19.14;100.00;99604.50;5112785;27;45496;-76
2023/09/21 05:18:00;;;;;;;;;2.00;2.00;;;;;19.19;100.00;99606.75;5106040;27;45375;-75
2023/09/21 05:20:25;;;;;;;;;2.00;2.00;;;;;19.19;100.00;99615.63;5099213;27;45432;-76
2023/09/21 05:22:51;;;;;;;;;3.00;1.00;;;;;19.19;100.00;99614.78;5116823;27;45555;-75
2023/09/21 05:25:17;;;;;;;;;2.67;1.67;;;;;19.14;100.00;99611.75;5108039;27;45232;-76
2023/09/21 05:27:43;;;;;;;;;2.00;1.00;;;;;19.20;100.00;99617.31;5111476;27;48410;-76
2023/09/21 05:30:09;;;;;;;;;2.00;2.00;;;;;19.14;100.00;99612.56;5109445;27;45785;-76
2023/09/21 05:32:36;;;;;;;;;3.00;1.33;;;;;19.16;100.00;99615.09;5101261;27;45490;-76
2023/09/21 05:35:02;;;;;;;;;2.00;2.00;;;;;19.17;100.00;99622.16;5102402;27;45610;-75
2023/09/21 05:37:29;;;;;;;;;3.33;2.00;;;;;19.20;100.00;99622.69;5126922;27;46188;-75
2023/09/21 05:39:54;;;;;;;;;4.00;2.00;;;;;19.18;100.00;99627.34;5105441;27;45458;-75
2023/09/21 05:42:19;;;;;;;;;1.00;1.00;;;;;19.13;100.00;99615.41;5105060;27;45272;-75
2023/09/21 05:44:45;;;;;;;;;3.33;3.00;;;;;19.19;100.00;99634.41;5113436;27;45586;-75
2023/09/21 05:47:11;;;;;;;;;4.33;3.00;;;;;19.15;100.00;99622.28;5108975;27;45236;-75
2023/09/21 05:49:37;;;;;;;;;1.00;1.00;;;;;19.03;100.00;99599.41;5107770;27;45279;-75
2023/09/21 05:52:08;;;;;;;;;2.00;2.00;;;;;19.15;100.00;99622.28;5110907;27;45402;-75
2023/09/21 05:54:34;;;;;;;;;2.67;2.67;;;;;19.14;100.00;99630.50;5109371;27;45419;-75
2023/09/21 05:57:00;;;;;;;;;2.00;2.00;;;;;19.13;100.00;99635.03;5110891;27;47324;-74
2023/09/21 05:59:27;;;;;;;;;3.33;2.00;;;;;19.11;100.00;99642.34;5098749;27;45220;-75
2023/09/21 06:01:53;;;;;;;;;4.00;2.00;;;;;19.14;100.00;99646.59;5104275;27;45394;-75
2023/09/21 06:04:21;;;;;;;;;4.00;3.00;;;;;19.14;100.00;99652.75;5103480;27;45467;-75
2023/09/21 06:06:47;;;;;;;;;3.00;2.00;;;;;19.13;100.00;99648.41;5109024;27;46506;-75
2023/09/21 06:09:18;;;;;;;;;2.00;2.00;;;;;19.08;100.00;99650.72;5109020;27;45443;-75
2023/09/21 06:11:44;;;;;;;;;4.00;2.67;;;;;19.10;100.00;99666.66;5109911;27;45616;-75
2023/09/21 06:14:10;;;;;;;;;2.00;2.00;;;;;19.02;100.00;99651.31;5115068;27;45454;-75
2023/09/21 06:16:35;;;;;;;;;2.67;2.00;;;;;19.11;100.00;99666.47;5109384;27;45547;-75
2023/09/21 06:19:00;;;;;;;;;4.00;3.00;;;;;19.10;100.00;99662.13;5113544;27;45803;-75
2023/09/21 06:21:27;;;;;;;;;3.00;1.00;;;;;19.01;100.00;99655.00;5125769;27;45479;-75
2023/09/21 06:23:53;;;;;;;;;2.00;2.00;;;;;19.02;100.00;99655.84;5114489;27;45393;-75
2023/09/21 06:26:18;;;;;;;;;3.00;2.00;;;;;18.98;100.00;99649.09;5129015;27;48685;-75
2023/09/21 06:28:47;;;;;;;;;3.00;3.00;;;;;19.02;100.00;99662.03;5128393;27;45371;-76
2023/09/21 06:31:13;;;;;;;;;3.33;2.33;;;;;18.98;100.00;99659.81;5122695;27;45421;-76
2023/09/21 06:33:39;;;;;;;;;2.00;2.00;;;;;18.98;100.00;99665.19;5111007;27;45378;-75
2023/09/21 06:36:05;;;;;;;;;2.00;2.00;;;;;18.97;100.00;99664.34;5109823;27;45715;-75
2023/09/21 06:38:30;;;;;;;;;4.00;4.00;;;;;19.01;100.00;99663.03;5120435;27;45429;-75
2023/09/21 06:40:55;;;;;;;;;3.00;3.00;;;;;19.01;100.00;99654.19;5121615;27;45370;-75
2023/09/21 06:43:22;;;;;;;;;3.33;1.00;;;;;18.88;100.00;99641.13;5106123;27;48249;-75
2023/09/21 06:45:47;;;;;;;;;1.33;1.33;;;;;18.94;100.00;99653.94;5133935;27;46015;-75
2023/09/21 06:48:13;;;;;;;;;2.00;2.00;;;;;18.92;100.00;99650.56;5106001;27;45325;-75
2023/09/21 06:50:40;;;;;;;;;1.00;1.00;;;;;18.84;100.00;99634.44;5120045;27;45474;-75
2023/09/21 06:53:07;;;;;;;;;1.00;0.00;;;;;18.85;100.00;99646.81;5107791;27;45567;-75
2023/09/21 06:55:32;;;;;;;;;3.00;2.00;;;;;18.92;100.00;99668.47;5114791;27;45186;-75
2023/09/21 06:57:57;;;;;;;;;2.33;2.33;;;;;18.92;100.00;99672.00;5111499;27;45422;-75
2023/09/21 07:00:23;;;;;;;;;2.33;2.00;;;;;18.84;100.00;99661.22;5114564;27;47292;-76
2023/09/21 07:02:48;;;;;;;;;3.00;2.00;;;;;18.90;100.00;99676.69;5119145;27;47990;-75
2023/09/21 07:05:13;;;;;;;;;4.33;2.33;;;;;18.89;100.00;99674.97;5120419;27;45868;-75
2023/09/21 07:07:41;;;;;;;;;3.00;2.00;;;;;18.89;100.00;99682.19;5112424;27;45422;-75
2023/09/21 07:10:09;;;;;;;;;3.00;2.00;;;;;18.81;100.00;99663.34;5123050;27;45352;-76
2023/09/21 07:12:37;;;;;;;;;3.00;3.00;;;;;18.85;100.00;99662.88;5107538;27;45538;-75
2023/09/21 07:15:02;;;;;;;;;1.00;1.00;;;;;18.82;100.00;99654.31;5104858;27;45390;-75
2023/09/21 07:17:29;;;;;;;;;2.00;2.00;;;;;18.83;100.00;99661.34;5103178;27;45274;-75
2023/09/21 07:19:54;;;;;;;;;2.00;2.00;;;;;18.86;100.00;99667.25;5113291;27;45339;-75
2023/09/21 07:22:20;;;;;;;;;3.00;2.00;;;;;18.81;100.00;99658.00;5106378;27;45386;-74
2023/09/21 07:24:47;;;;;;;;;3.33;2.33;;;;;18.81;100.00;99660.69;5102964;27;48101;-75
2023/09/21 07:27:13;;;;;;;;;3.00;2.00;;;;;18.78;100.00;99643.09;5101272;27;45361;-74
2023/09/21 07:29:39;;;;;;;;;2.00;2.00;;;;;18.79;100.00;99655.47;5101698;27;45269;-74
2023/09/21 07:32:05;;;;;;;;;2.33;2.33;;;;;18.77;100.00;99644.06;5101378;27;45278;-74
2023/09/21 07:34:32;;;;;;;;;2.00;0.67;;;;;18.82;100.00;99639.06;5104160;27;45466;-74
2023/09/21 07:36:57;;;;;;;;;4.00;2.00;;;;;18.81;100.00;99647.28;5119164;27;45453;-75
2023/09/21 07:39:23;;;;;;;;;2.00;2.00;;;;;18.83;100.00;99643.44;5105556;27;48022;-74
2023/09/21 07:41:49;;;;;;;;;1.00;1.00;;;;;18.76;100.00;99628.97;5111282;27;46710;-75
2023/09/21 07:44:16;;;;;;;;;2.67;2.00;;;;;18.81;100.00;99644.59;5108272;27;47110;-74
2023/09/21 07:46:41;;;;;;;;;1.00;1.00;;;;;18.82;100.00;99624.84;5112026;27;45406;-74
2023/09/21 07:49:07;;;;;;;;;3.00;2.00;;;;;18.76;100.00;99617.41;5105118;27;50709;-75
2023/09/21 07:51:33;;;;;;;;;3.67;1.00;;;;;18.79;100.00;99617.94;5101585;27;45502;-74
2023/09/21 07:54:00;;;;;;;;;1.33;1.33;;;;;18.64;100.00;99606.09;5104223;27;45344;-74
2023/09/21 07:56:36;;;;;;;;;4.00;1.00;;;;;18.79;100.00;99617.94;5112780;27;45323;-75
2023/09/21 07:59:01;;;;;;;;;1.67;1.67;;;;;18.60;100.00;99586.81;5102039;27;45390;-75
2023/09/21 08:01:27;;;;;;;;;3.00;1.33;;;;;18.82;100.00;99622.16;5114556;27;45224;-75
2023/09/21 08:03:54;;;;;;;;;1.00;1.00;;;;;18.84;100.00;99626.38;5115987;27;46684;-75
2023/09/21 08:06:20;;;;;;;;;1.00;1.00;;;;;18.85;100.00;99621.88;5106952;27;45501;-75
2023/09/21 08:08:46;;;;;;;;;1.33;0.33;;;;;18.72;100.00;99593.63;5108639;27;45342;-75
2023/09/21 08:11:12;;;;;;;;;2.67;1.00;;;;;18.87;100.00;99617.19;5110078;27;45433;-76
2023/09/21 08:13:38;;;;;;;;;1.67;1.00;;;;;18.82;100.00;99598.88;5123215;27;45365;-75
2023/09/21 08:16:03;;;;;;;;;1.67;1.00;;;;;18.88;100.00;99616.22;5109447;27;45343;-76
2023/09/21 08:18:29;;;;;;;;;2.33;1.00;;;;;18.82;100.00;99609.59;5107952;27;45229;-75
2023/09/21 08:20:55;;;;;;;;;3.00;2.00;;;;;18.83;100.00;99602.41;5104788;27;45294;-75
2023/09/21 08:23:20;;;;;;;;;1.00;1.00;;;;;18.83;100.00;99611.31;5108961;27;45857;-75
2023/09/21 08:25:46;;;;;;;;;4.00;2.00;;;;;18.83;100.00;99594.38;5102363;27;45387;-75
2023/09/21 08:28:11;;;;;;;;;4.00;3.00;;;;;18.76;100.00;99585.28;5105150;27;45516;-75
2023/09/21 08:30:38;;;;;;;;;2.00;2.00;;;;;18.85;100.00;99600.44;5119549;27;45863;-75
2023/09/21 08:33:07;;;;;;;;;1.00;1.00;;;;;18.87;100.00;99603.81;5115634;27;47137;-76
2023/09/21 08:35:32;;;;;;;;;1.33;1.33;;;;;18.88;100.00;99610.84;5112502;27;45403;-75
2023/09/21 08:37:59;;;;;;;;;2.00;2.00;;;;;18.88;100.00;99616.22;5113299;27;45362;-75
2023/09/21 08:40:25;;;;;;;;;3.00;1.33;;;;;18.84;100.00;99604.97;5106752;27;45557;-74
2023/09/21 08:42:55;;;;;;;;;2.67;2.00;;;;;18.75;100.00;99594.31;5105454;27;46003;-74
2023/09/21 08:45:22;;;;;;;;;2.00;2.00;;;;;18.71;100.00;99594.63;5113638;27;45410;-75
2023/09/21 08:47:49;;;;;;;;;2.33;1.00;;;;;18.79;100.00;99611.75;5113799;27;45389;-73
2023/09/21 08:50:15;;;;;;;;;3.00;1.67;;;;;18.74;100.00;99612.22;5112533;27;45435;-73
2023/09/21 08:52:45;;;;;;;;;2.00;2.00;;;;;18.71;100.00;99601.81;5113184;27;45258;-73
2023/09/21 08:55:16;;;;;;;;;2.00;1.67;;;;;18.72;100.00;99607.00;5112681;27;45357;-73
2023/09/21 08:57:42;;;;;;;;;2.00;2.00;;;;;18.74;100.00;99609.56;5113291;27;45330;-76
2023/09/21 09:00:08;;;;;;;;;2.00;2.00;;;;;18.72;100.00;99607.00;5099854;27;45274;-73
2023/09/21 09:02:37;;;;;;;;;2.00;2.00;;;;;18.75;100.00;99603.16;5100534;27;46131;-73
2023/09/21 09:05:07;;;;;;;;;4.00;2.67;;;;;18.83;100.00;99608.63;5099916;27;45460;-74
2023/09/21 09:07:40;;;;;;;;;1.00;1.00;;;;;18.82;100.00;99596.22;5113408;27;45470;-74
2023/09/21 09:10:13;;;;;;;;;3.00;3.00;;;;;18.87;100.00;99593.94;5112234;27;45392;-74
2023/09/21 09:12:39;;;;;;;;;3.00;2.00;;;;;18.92;100.00;99593.44;5099795;27;45503;-74
2023/09/21 09:15:08;;;;;;;;;2.00;1.67;;;;;18.92;100.00;99594.28;5099680;27;45267;-74
2023/09/21 09:17:34;;;;;;;;;3.00;2.00;;;;;18.93;100.00;99592.47;5109423;27;45311;-74
2023/09/21 09:20:05;;;;;;;;;2.00;2.00;;;;;18.99;100.00;99590.00;5117011;27;45590;-73
2023/09/21 09:22:33;;;;;;;;;3.67;2.67;;;;;18.83;100.00;99548.84;5116898;27;45294;-73
2023/09/21 09:25:07;;;;;;;;;4.33;2.00;;;;;18.95;100.00;99563.66;5119550;27;45407;-75
2023/09/21 09:27:33;;;;;;;;;3.00;3.00;;;;;18.92;100.00;99569.34;5111081;27;45338;-76
2023/09/21 09:29:59;;;;;;;;;4.00;2.00;;;;;18.94;100.00;99580.75;5113242;27;45286;-75
2023/09/21 09:32:28;;;;;;;;;2.00;2.00;;;;;18.83;100.00;99583.66;5099265;27;46146;-75
2023/09/21 09:34:56;;;;;;;;;4.00;2.67;;;;;18.79;100.00;99609.91;5106041;27;45265;-74
2023/09/21 09:37:21;;;;;;;;;1.00;1.00;;;;;18.64;100.00;99606.94;5129459;27;45184;-78
2023/09/21 09:39:47;;;;;;;;;0.67;0.00;;;;;18.51;100.00;99582.38;5120918;27;45466;-78
2023/09/21 09:42:15;;;;;;;;;2.33;0.00;;;;;18.42;100.00;99609.19;5103194;27;45666;-76
2023/09/21 09:44:46;;;;;;;;;0.00;0.00;;;;;18.20;100.00;99607.75;5102360;27;45352;-77
2023/09/21 09:47:16;;;;;;;;;1.00;0.00;;;;;17.95;100.00;99582.56;5125355;27;45256;-78
2023/09/21 09:49:45;;;;;;;;;0.00;0.00;;;;;18.03;100.00;99609.41;5129366;27;45327;-78
2023/09/21 09:52:13;;;;;;;;;0.00;0.00;;;;;17.93;100.00;99624.66;5124770;27;45248;-76
2023/09/21 09:54:40;;;;;;;;;2.00;0.00;;;;;17.77;100.00;99583.50;5116096;27;45217;-77
2023/09/21 09:57:11;;;;;;;;;0.00;0.00;;;;;17.71;100.00;99574.22;5124630;27;45405;-76
2023/09/21 09:59:37;;;;;;;;;0.00;0.00;;;;;17.78;100.00;99594.03;5110446;27;46019;-75
2023/09/21 10:02:06;;;;;;;;;2.00;0.00;;;;;17.71;100.00;99590.25;5118448;27;45268;-76
2023/09/21 10:04:35;;;;;;;;;0.00;0.00;;;;;17.75;100.00;99599.69;5123574;27;45359;-76
2023/09/21 10:07:02;;;;;;;;;1.67;0.00;;;;;17.83;100.00;99590.94;5122248;27;45538;-76
2023/09/21 10:09:28;;;;;;;;;0.00;0.00;;;;;17.92;100.00;99595.38;5133745;27;45406;-76
2023/09/21 10:11:55;;;;;;;;;1.00;0.00;;;;;17.97;100.00;99593.94;5107375;27;46172;-76
2023/09/21 10:14:23;;;;;;;;;0.00;0.00;;;;;18.01;100.00;99595.34;5102722;27;45354;-75
2023/09/21 10:16:56;;;;;;;;;0.00;0.00;;;;;18.04;100.00;99594.19;5107015;27;45487;-75
2023/09/21 10:19:28;;;;;;;;;0.00;0.00;;;;;18.07;100.00;99600.09;5109563;27;46085;-75
2023/09/21 10:21:56;;;;;;;;;0.00;0.00;;;;;18.15;100.00;99591.31;5109415;27;46041;-75
2023/09/21 10:24:24;;;;;;;;;1.67;1.00;;;;;18.21;100.00;99591.56;5114756;27;45359;-76
2023/09/21 10:26:51;;;;;;;;;0.00;0.00;;;;;18.23;100.00;99594.91;5116346;27;45327;-76
2023/09/21 10:29:21;;;;;;;;;0.00;0.00;;;;;18.29;100.00;99590.78;5116333;27;45447;-75
2023/09/21 10:31:56;;;;;;;;;0.00;0.00;;;;;18.25;100.00;99573.38;5124295;27;46371;-76
2023/09/21 10:34:24;;;;;;;;;0.00;0.00;;;;;18.39;100.00;99585.41;5122608;27;45368;-76
2023/09/21 10:36:52;;;;;;;;;0.00;0.00;;;;;18.46;100.00;99594.47;5120967;27;45299;-76
2023/09/21 10:39:30;;;;;;;;;0.00;0.00;;;;;18.52;100.00;99597.44;5122770;27;45314;-76
2023/09/21 10:42:16;;;;;;;;;0.33;0.33;;;;;18.58;100.00;99609.41;5102632;27;46199;-75
2023/09/21 10:44:53;;;;;;;;;1.67;0.00;;;;;18.62;100.00;99613.44;5092320;27;45364;-73
2023/09/21 10:47:37;;;;;;;;;2.00;1.00;;;;;18.63;100.00;99607.09;5101276;27;45387;-73
2023/09/21 10:50:10;;;;;;;;;1.00;1.00;;;;;18.54;100.00;99602.66;5106920;27;45627;-73
2023/09/21 10:52:41;;;;;;;;;1.00;1.00;;;;;18.61;100.00;99627.84;5109392;27;45542;-76
2023/09/21 10:55:09;;;;;;;;;1.00;0.00;;;;;18.62;100.00;99637.53;5111812;27;45329;-75
2023/09/21 10:57:35;;;;;;;;;0.00;0.00;;;;;18.53;100.00;99643.81;5108722;27;45375;-76
2023/09/21 11:00:00;;;;;;;;;1.00;1.00;;;;;18.46;100.00;99634.66;5109731;27;45353;-76
2023/09/21 11:02:31;;;;;;;;;0.33;0.33;;;;;18.45;100.00;99633.00;5116309;27;45369;-76
2023/09/21 11:04:57;;;;;;;;;0.67;0.67;;;;;18.37;100.00;99615.00;5104869;27;45371;-76
2023/09/21 11:07:24;;;;;;;;;1.00;1.00;;;;;18.33;100.00;99599.38;5103678;27;45340;-76
2023/09/21 11:09:50;;;;;;;;;1.00;1.00;;;;;18.30;100.00;99589.81;5101952;27;45306;-75
2023/09/21 11:12:18;;;;;;;;;1.00;1.00;;;;;18.18;100.00;99572.28;5114818;27;45433;-75
2023/09/21 11:14:47;;;;;;;;;2.00;1.00;;;;;18.30;100.00;99578.25;5101661;27;45452;-76
2023/09/21 11:17:16;;;;;;;;;3.33;2.00;;;;;18.26;100.00;99585.75;5102053;27;45362;-76
2023/09/21 11:19:42;;;;;;;;;1.33;0.33;;;;;18.18;100.00;99594.53;5110598;27;45564;-76
2023/09/21 11:22:09;;;;;;;;;0.67;0.67;;;;;18.11;100.00;99606.00;5108661;27;46156;-76
2023/09/21 11:24:36;;;;;;;;;3.33;3.00;;;;;18.07;100.00;99599.25;5122197;27;45345;-76
2023/09/21 11:27:03;;;;;;;;;3.67;3.00;;;;;18.00;100.00;99584.78;5107036;27;45301;-76